createdAt,value
2019-04-28T00:00:48.374Z,14.73
2019-04-28T00:03:16.992Z,10.33
2019-04-28T00:05:58.058Z,16.60
2019-04-28T00:08:26.730Z,14.43
2019-04-28T00:10:55.432Z,12.37
2019-04-28T00:13:24.264Z,16.27
2019-04-28T00:15:53.184Z,9.53
2019-04-28T00:18:22.104Z,12.83
2019-04-28T00:21:07.001Z,10.37
2019-04-28T00:23:46.012Z,17.67
2019-04-28T00:26:18.704Z,16.30
2019-04-28T00:28:47.319Z,10.70
2019-04-28T00:31:17.530Z,7.83
2019-04-28T00:33:45.998Z,4.60
2019-04-28T00:36:14.628Z,6.03
2019-04-28T00:38:43.092Z,4.70
2019-04-28T00:41:11.639Z,7.00
2019-04-28T00:43:41.823Z,2.40
2019-04-28T00:46:10.826Z,3.20
2019-04-28T00:48:42.276Z,6.53
2019-04-28T00:51:11.598Z,3.67
2019-04-28T00:53:40.860Z,5.43
2019-04-28T00:56:11.741Z,3.97
2019-04-28T00:58:41.638Z,8.97
2019-04-28T01:01:21.390Z,12.13
2019-04-28T01:03:51.883Z,6.57
2019-04-28T01:06:22.262Z,7.37
2019-04-28T01:08:51.648Z,5.63
2019-04-28T01:11:21.750Z,8.53
2019-04-28T01:13:51.793Z,5.20
2019-04-28T01:16:25.002Z,9.53
2019-04-28T01:19:01.148Z,5.83
2019-04-28T01:21:46.460Z,9.67
2019-04-28T01:24:15.256Z,7.97
2019-04-28T01:26:43.886Z,7.63
2019-04-28T01:29:12.450Z,10.90
2019-04-28T01:31:42.750Z,8.90
2019-04-28T01:34:15.884Z,7.27
2019-04-28T01:36:44.354Z,10.30
2019-04-28T01:39:13.168Z,9.67
2019-04-28T01:41:41.862Z,8.20
2019-04-28T01:44:10.482Z,10.67
2019-04-28T01:46:42.275Z,11.97
2019-04-28T01:49:10.989Z,11.77
2019-04-28T01:51:41.461Z,9.43
2019-04-28T01:54:11.583Z,13.97
2019-04-28T01:56:40.495Z,12.67
2019-04-28T01:59:11.050Z,10.80
2019-04-28T02:01:40.037Z,14.20
2019-04-28T02:04:13.944Z,13.20
2019-04-28T02:06:40.869Z,10.50
2019-04-28T02:09:10.169Z,7.50
2019-04-28T02:11:39.154Z,14.63
2019-04-28T02:14:09.632Z,8.43
2019-04-28T02:16:40.416Z,12.80
2019-04-28T02:19:10.645Z,7.77
2019-04-28T02:21:42.160Z,9.37
2019-04-28T02:24:30.983Z,16.47
2019-04-28T02:27:01.123Z,8.17
2019-04-28T02:29:30.526Z,14.03
2019-04-28T02:32:02.233Z,12.77
2019-04-28T02:34:31.099Z,17.77
2019-04-28T02:37:01.504Z,18.90
2019-04-28T02:39:31.547Z,9.00
2019-04-28T02:42:01.343Z,17.17
2019-04-28T02:44:34.091Z,11.43
2019-04-28T02:47:01.113Z,14.80
2019-04-28T02:49:31.739Z,14.17
2019-04-28T02:52:20.220Z,8.07
2019-04-28T02:54:50.775Z,10.33
2019-04-28T02:57:20.894Z,13.20
2019-04-28T02:59:50.782Z,10.40
2019-04-28T03:02:20.788Z,10.90
2019-04-28T03:04:50.596Z,13.30
2019-04-28T03:07:21.682Z,10.70
2019-04-28T03:09:52.124Z,10.93
2019-04-28T03:12:21.547Z,9.00
2019-04-28T03:14:50.714Z,8.27
2019-04-28T03:17:20.734Z,12.17
2019-04-28T03:19:51.625Z,12.17
2019-04-28T03:22:20.536Z,9.40
2019-04-28T03:24:51.233Z,10.70
2019-04-28T03:27:27.597Z,10.43
2019-04-28T03:30:00.498Z,11.90
2019-04-28T03:32:45.362Z,11.50
2019-04-28T03:35:06.089Z,16.17
2019-04-28T03:37:34.718Z,15.50
2019-04-28T03:40:04.012Z,15.50
2019-04-28T03:42:32.562Z,17.87
2019-04-28T03:45:02.799Z,11.37
2019-04-28T03:47:31.715Z,17.70
2019-04-28T03:50:00.470Z,8.50
2019-04-28T03:52:31.614Z,17.30
2019-04-28T03:55:00.548Z,8.57
2019-04-28T03:57:31.378Z,12.50
2019-04-28T04:00:01.562Z,10.90
2019-04-28T04:02:31.213Z,12.83
2019-04-28T04:05:03.312Z,11.77
2019-04-28T04:07:31.170Z,12.17
2019-04-28T04:10:04.788Z,16.00
2019-04-28T04:12:44.583Z,14.80
2019-04-28T04:15:23.042Z,12.90
2019-04-28T04:18:02.294Z,11.73
2019-04-28T04:20:31.193Z,10.67
2019-04-28T04:23:01.517Z,14.33
2019-04-28T04:25:31.373Z,16.80
2019-04-28T04:28:03.564Z,9.27
2019-04-28T04:30:31.274Z,12.60
2019-04-28T04:33:01.282Z,14.73
2019-04-28T04:35:31.527Z,12.03
2019-04-28T04:38:00.762Z,11.07
2019-04-28T04:40:31.848Z,8.10
2019-04-28T04:43:01.551Z,6.73
2019-04-28T04:45:30.720Z,7.67
2019-04-28T04:48:00.577Z,11.37
2019-04-28T04:50:31.367Z,6.40
2019-04-28T04:53:02.384Z,7.33
2019-04-28T04:55:31.774Z,9.50
2019-04-28T04:58:00.911Z,13.83
2019-04-28T05:00:31.369Z,10.57
2019-04-28T05:03:04.730Z,16.33
2019-04-28T05:05:37.920Z,12.13
2019-04-28T05:08:06.813Z,12.77
2019-04-28T05:10:35.377Z,9.90
2019-04-28T05:13:04.295Z,16.60
2019-04-28T05:15:33.238Z,13.30
2019-04-28T05:18:02.051Z,12.23
2019-04-28T05:20:30.645Z,12.40
2019-04-28T05:23:12.879Z,11.30
2019-04-28T05:25:49.718Z,11.03
2019-04-28T05:28:30.649Z,13.47
2019-04-28T05:31:00.076Z,16.37
2019-04-28T05:33:39.610Z,18.47
2019-04-28T05:36:02.619Z,12.87
2019-04-28T05:38:32.139Z,13.20
2019-04-28T05:41:02.715Z,11.63
2019-04-28T05:43:40.293Z,17.87
2019-04-28T05:46:02.109Z,12.33
2019-04-28T05:48:51.179Z,17.53
2019-04-28T05:51:21.012Z,13.17
2019-04-28T05:53:53.793Z,9.40
2019-04-28T05:56:23.515Z,17.90
2019-04-28T05:58:54.395Z,11.83
2019-04-28T06:01:30.535Z,18.87
2019-04-28T06:06:54.648Z,14.40
2019-04-28T06:09:30.543Z,18.03
2019-04-28T06:12:00.151Z,13.87
2019-04-28T06:14:30.061Z,21.57
2019-04-28T06:17:00.503Z,23.60
2019-04-28T06:19:30.208Z,16.40
2019-04-28T06:21:59.015Z,13.20
2019-04-28T06:24:33.795Z,13.80
2019-04-28T06:27:02.511Z,18.00
2019-04-28T06:29:31.237Z,11.00
2019-04-28T06:31:59.907Z,13.00
2019-04-28T06:34:28.618Z,14.47
2019-04-28T06:36:57.195Z,14.17
2019-04-28T06:39:25.910Z,13.63
2019-04-28T06:41:54.619Z,14.03
2019-04-28T06:44:26.333Z,15.13
2019-04-28T06:46:54.967Z,20.57
2019-04-28T06:49:23.677Z,26.37
2019-04-28T06:51:53.443Z,13.20
2019-04-28T06:54:22.045Z,18.53
2019-04-28T06:56:50.707Z,19.87
2019-04-28T06:59:19.585Z,14.10
2019-04-28T07:01:50.282Z,17.33
2019-04-28T07:04:19.307Z,12.50
2019-04-28T07:06:47.865Z,11.63
2019-04-28T07:09:16.524Z,15.70
2019-04-28T07:11:46.248Z,18.40
2019-04-28T07:14:14.919Z,16.70
2019-04-28T07:16:43.808Z,13.30
2019-04-28T07:19:12.431Z,15.30
2019-04-28T07:21:50.021Z,13.20
2019-04-28T07:24:18.791Z,10.73
2019-04-28T07:26:51.153Z,9.60
2019-04-28T07:29:19.444Z,9.10
2019-04-28T07:31:48.295Z,15.87
2019-04-28T07:34:17.320Z,16.20
2019-04-28T07:36:46.025Z,19.50
2019-04-28T07:39:14.677Z,7.47
2019-04-28T07:41:43.457Z,12.93
2019-04-28T07:44:12.243Z,12.03
2019-04-28T07:46:40.967Z,12.00
2019-04-28T07:49:09.754Z,14.00
2019-04-28T07:51:56.417Z,17.20
2019-04-28T07:54:25.637Z,10.80
2019-04-28T07:56:54.297Z,13.60
2019-04-28T07:59:22.935Z,10.27
2019-04-28T08:01:53.137Z,11.30
2019-04-28T08:04:21.909Z,12.83
2019-04-28T08:06:51.869Z,13.77
2019-04-28T08:09:20.835Z,15.43
2019-04-28T08:11:49.565Z,7.13
2019-04-28T08:14:19.855Z,14.77
2019-04-28T08:16:48.688Z,11.83
2019-04-28T08:19:18.418Z,9.50
2019-04-28T08:21:47.113Z,15.47
2019-04-28T08:24:17.269Z,11.60
2019-04-28T08:26:46.069Z,12.37
2019-04-28T08:29:14.761Z,12.60
2019-04-28T08:32:02.443Z,13.93
2019-04-28T08:34:30.371Z,11.23
2019-04-28T08:36:59.194Z,13.87
2019-04-28T08:39:30.997Z,10.93
2019-04-28T08:42:03.816Z,15.13
2019-04-28T08:44:34.133Z,17.23
2019-04-28T08:47:03.008Z,10.70
2019-04-28T08:49:31.870Z,16.43
2019-04-28T08:52:02.243Z,13.50
2019-04-28T08:54:31.044Z,13.73
2019-04-28T08:56:59.715Z,17.27
2019-04-28T08:59:30.300Z,15.77
2019-04-28T09:01:59.024Z,11.53
2019-04-28T09:04:27.756Z,12.67
2019-04-28T09:06:56.527Z,15.70
2019-04-28T09:09:25.457Z,9.77
2019-04-28T09:12:12.055Z,10.83
2019-04-28T09:14:40.742Z,12.80
2019-04-28T09:17:09.431Z,12.03
2019-04-28T09:19:38.049Z,17.33
2019-04-28T09:22:06.773Z,15.23
2019-04-28T09:24:35.529Z,14.43
2019-04-28T09:27:04.681Z,17.50
2019-04-28T09:29:33.401Z,15.53
2019-04-28T09:32:02.129Z,17.37
2019-04-28T09:34:30.916Z,13.80
2019-04-28T09:36:59.570Z,14.37
2019-04-28T09:39:46.408Z,13.67
2019-04-28T09:42:25.911Z,14.20
2019-04-28T09:44:54.600Z,15.20
2019-04-28T09:47:23.294Z,16.73
2019-04-28T09:49:52.186Z,15.93
2019-04-28T09:52:20.852Z,17.87
2019-04-28T09:54:49.601Z,19.80
2019-04-28T09:57:18.296Z,22.10
2019-04-28T09:59:46.921Z,18.70
2019-04-28T10:02:15.737Z,19.13
2019-04-28T10:04:44.305Z,17.03
2019-04-28T10:07:13.010Z,9.23
2019-04-28T10:09:41.753Z,14.40
2019-04-28T10:12:10.873Z,17.70
2019-04-28T10:14:43.141Z,15.40
2019-04-28T10:17:11.416Z,15.60
2019-04-28T10:19:40.092Z,13.03
2019-04-28T10:22:11.958Z,13.40
2019-04-28T10:24:40.743Z,12.53
2019-04-28T10:27:09.696Z,9.60
2019-04-28T10:29:38.255Z,10.93
2019-04-28T10:32:12.163Z,6.93
2019-04-28T10:35:00.065Z,6.73
2019-04-28T10:37:29.105Z,9.13
2019-04-28T10:39:59.575Z,10.70
2019-04-28T10:42:28.243Z,10.93
2019-04-28T10:44:57.112Z,10.70
2019-04-28T10:47:26.156Z,6.10
2019-04-28T10:49:55.041Z,7.37
2019-04-28T10:52:37.255Z,9.60
2019-04-28T10:55:05.335Z,9.23
2019-04-28T10:57:34.196Z,8.03
2019-04-28T11:00:03.571Z,13.47
2019-04-28T11:02:32.317Z,11.03
2019-04-28T11:05:08.522Z,11.47
2019-04-28T11:07:33.687Z,10.93
2019-04-28T11:10:06.982Z,9.30
2019-04-28T11:12:37.987Z,9.53
2019-04-28T11:15:09.940Z,9.03
2019-04-28T11:17:38.865Z,16.50
2019-04-28T11:20:10.905Z,16.97
2019-04-28T11:22:41.488Z,23.33
2019-04-28T11:25:16.373Z,14.43
2019-04-28T11:27:45.572Z,17.80
2019-04-28T11:30:16.566Z,12.43
2019-04-28T11:32:48.060Z,15.07
2019-04-28T11:35:34.976Z,15.27
2019-04-28T11:38:05.399Z,15.27
2019-04-28T11:40:41.838Z,18.50
2019-04-28T11:43:10.655Z,8.80
2019-04-28T11:45:39.492Z,15.73
2019-04-28T11:48:08.346Z,15.50
2019-04-28T11:50:37.533Z,18.40
2019-04-28T11:53:07.992Z,17.43
2019-04-28T11:55:37.081Z,19.53
2019-04-28T11:58:15.015Z,18.17
2019-04-28T12:00:44.298Z,26.93
2019-04-28T12:03:13.410Z,19.20
2019-04-28T12:05:45.628Z,23.00
2019-04-28T12:08:21.443Z,27.63
2019-04-28T12:10:49.511Z,19.67
2019-04-28T12:13:32.547Z,18.20
2019-04-28T12:16:09.848Z,28.70
2019-04-28T12:18:40.248Z,27.33
2019-04-28T12:21:09.042Z,23.77
2019-04-28T12:23:39.630Z,18.97
2019-04-28T12:26:08.442Z,15.03
2019-04-28T12:28:38.073Z,14.67
2019-04-28T12:31:07.112Z,10.67
2019-04-28T12:33:38.309Z,8.57
2019-04-28T12:36:09.181Z,10.23
2019-04-28T12:38:39.906Z,7.13
2019-04-28T12:41:16.503Z,10.40
2019-04-28T12:43:45.626Z,8.20
2019-04-28T12:46:14.927Z,9.47
2019-04-28T12:48:47.608Z,7.60
2019-04-28T12:51:17.973Z,7.30
2019-04-28T12:53:48.730Z,7.83
2019-04-28T12:56:19.908Z,6.73
2019-04-28T12:58:53.699Z,9.17
2019-04-28T13:01:24.036Z,29.00
2019-04-28T13:04:08.969Z,33.67
2019-04-28T13:06:38.101Z,70.13
2019-04-28T13:09:08.128Z,66.73
2019-04-28T13:11:37.352Z,9.70
2019-04-28T13:14:06.374Z,12.77
2019-04-28T13:16:48.214Z,5.73
2019-04-28T13:19:23.883Z,8.13
2019-04-28T13:21:55.720Z,8.07
2019-04-28T13:24:45.370Z,13.13
2019-04-28T13:27:14.312Z,10.30
2019-04-28T13:29:43.244Z,10.90
2019-04-28T13:32:13.486Z,8.00
2019-04-28T13:34:45.110Z,13.63
2019-04-28T13:37:15.302Z,12.00
2019-04-28T13:39:58.722Z,9.97
2019-04-28T13:42:30.422Z,10.10
2019-04-28T13:45:02.416Z,10.37
2019-04-28T13:47:31.189Z,9.47
2019-04-28T13:50:03.061Z,9.80
2019-04-28T13:52:31.862Z,9.20
2019-04-28T13:55:21.587Z,10.07
2019-04-28T13:57:51.035Z,10.70
2019-04-28T14:00:21.538Z,10.53
2019-04-28T14:02:51.907Z,11.20
2019-04-28T14:05:28.277Z,10.33
2019-04-28T14:07:56.956Z,18.47
2019-04-28T14:10:25.644Z,10.80
2019-04-28T14:12:56.054Z,9.53
2019-04-28T14:15:24.686Z,11.50
2019-04-28T14:17:53.440Z,9.10
2019-04-28T14:20:22.224Z,12.70
2019-04-28T14:22:50.808Z,12.53
2019-04-28T14:25:19.624Z,9.93
2019-04-28T14:27:48.478Z,10.70
2019-04-28T14:30:17.309Z,9.70
2019-04-28T14:32:46.022Z,11.20
2019-04-28T14:35:19.183Z,10.40
2019-04-28T14:37:48.015Z,11.27
2019-04-28T14:40:16.806Z,10.00
2019-04-28T14:42:47.046Z,10.80
2019-04-28T14:45:16.106Z,13.33
2019-04-28T14:47:44.901Z,10.27
2019-04-28T14:50:13.795Z,10.90
2019-04-28T14:52:57.110Z,11.10
2019-04-28T14:55:25.054Z,12.60
2019-04-28T14:57:53.862Z,10.53
2019-04-28T15:00:45.116Z,12.00
2019-04-28T15:07:33.292Z,4.97
2019-04-28T15:10:11.332Z,10.03
2019-04-28T15:12:41.122Z,11.23
2019-04-28T15:15:10.056Z,8.10
2019-04-28T15:17:48.213Z,10.00
2019-04-28T15:20:16.895Z,10.23
2019-04-28T15:22:52.930Z,8.27
2019-04-28T15:25:21.973Z,13.93
2019-04-28T15:27:50.507Z,16.73
2019-04-28T15:30:19.466Z,22.23
2019-04-28T15:32:48.171Z,19.80
2019-04-28T15:35:16.895Z,21.03
2019-04-28T15:37:45.595Z,19.17
2019-04-28T15:40:14.368Z,16.63
2019-04-28T15:42:43.244Z,19.60
2019-04-28T15:45:12.775Z,17.60
2019-04-28T15:47:41.660Z,18.67
2019-04-28T15:50:10.931Z,15.63
2019-04-28T15:52:39.598Z,15.57
2019-04-28T15:55:09.935Z,16.30
2019-04-28T15:57:39.776Z,18.67
2019-04-28T16:00:10.746Z,14.80
2019-04-28T16:02:39.960Z,15.27
2019-04-28T16:05:09.080Z,12.93
2019-04-28T16:07:39.886Z,18.13
2019-04-28T16:10:08.920Z,14.03
2019-04-28T16:12:37.599Z,13.40
2019-04-28T16:15:07.497Z,15.23
2019-04-28T16:17:36.348Z,15.37
2019-04-28T16:20:08.024Z,14.43
2019-04-28T16:22:37.777Z,13.83
2019-04-28T16:25:09.293Z,18.23
2019-04-28T16:27:38.084Z,13.77
2019-04-28T16:30:10.246Z,14.43
2019-04-28T16:32:38.834Z,13.50
2019-04-28T16:35:07.671Z,15.63
2019-04-28T16:37:38.855Z,18.20
2019-04-28T16:40:09.555Z,22.33
2019-04-28T16:42:37.313Z,17.13
2019-04-28T16:45:07.588Z,16.57
2019-04-28T16:47:36.376Z,17.27
2019-04-28T16:50:06.748Z,14.23
2019-04-28T16:52:35.339Z,14.20
2019-04-28T16:55:15.658Z,14.47
2019-04-28T16:57:48.857Z,16.10
2019-04-28T17:00:19.226Z,17.30
2019-04-28T17:02:47.848Z,17.20
2019-04-28T17:05:16.711Z,16.83
2019-04-28T17:07:52.459Z,18.67
2019-04-28T17:10:16.163Z,13.17
2019-04-28T17:12:44.876Z,18.80
2019-04-28T17:15:13.664Z,16.93
2019-04-28T17:17:42.604Z,20.03
2019-04-28T17:20:11.557Z,15.10
2019-04-28T17:22:40.171Z,15.83
2019-04-28T17:25:09.038Z,17.10
2019-04-28T17:27:37.751Z,17.60
2019-04-28T17:30:17.590Z,15.53
2019-04-28T17:32:46.041Z,13.77
2019-04-28T17:35:15.071Z,20.77
2019-04-28T17:37:43.783Z,18.57
2019-04-28T17:40:13.738Z,18.63
2019-04-28T17:42:43.052Z,19.93
2019-04-28T17:45:11.982Z,20.00
2019-04-28T17:47:40.824Z,15.43
2019-04-28T17:50:11.218Z,20.37
2019-04-28T17:52:44.067Z,19.67
2019-04-28T17:55:12.606Z,18.67
2019-04-28T17:57:41.235Z,19.43
2019-04-28T18:00:29.685Z,16.37
2019-04-28T18:03:16.172Z,13.30
2019-04-28T18:05:46.393Z,15.97
2019-04-28T18:08:21.165Z,14.67
2019-04-28T18:10:45.473Z,20.23
2019-04-28T18:13:14.322Z,15.43
2019-04-28T18:15:44.629Z,14.40
2019-04-28T18:18:33.029Z,20.80
2019-04-28T18:21:01.810Z,19.70
2019-04-28T18:23:30.641Z,12.67
2019-04-28T18:25:59.456Z,14.07
2019-04-28T18:28:28.070Z,10.90
2019-04-28T18:31:16.301Z,11.83
2019-04-28T18:33:46.597Z,17.67
2019-04-28T18:36:28.485Z,20.40
2019-04-28T18:39:15.197Z,17.70
2019-04-28T18:41:45.408Z,14.70
2019-04-28T18:44:15.593Z,18.23
2019-04-28T18:46:44.400Z,12.93
2019-04-28T18:49:13.107Z,13.13
2019-04-28T18:51:41.723Z,13.20
2019-04-28T18:54:10.408Z,17.27
2019-04-28T18:56:39.177Z,19.13
2019-04-28T18:59:08.034Z,16.00
2019-04-28T19:01:38.307Z,17.43
2019-04-28T19:04:06.876Z,15.87
2019-04-28T19:06:35.566Z,17.90
2019-04-28T19:09:07.148Z,14.83
2019-04-28T19:11:40.453Z,15.87
2019-04-28T19:14:13.770Z,17.47
2019-04-28T19:16:46.974Z,20.47
2019-04-28T19:19:34.455Z,16.67
2019-04-28T19:21:57.548Z,16.70
2019-04-28T19:24:27.241Z,15.97
2019-04-28T19:26:57.039Z,17.87
2019-04-28T19:29:25.743Z,15.97
2019-04-28T19:31:54.515Z,19.97
2019-04-28T19:34:23.219Z,18.33
2019-04-28T19:36:51.909Z,23.80
2019-04-28T19:39:20.647Z,19.10
2019-04-28T19:41:49.293Z,17.50
2019-04-28T19:44:17.913Z,19.93
2019-04-28T19:46:46.692Z,23.17
2019-04-28T19:49:15.671Z,17.87
2019-04-28T19:51:44.326Z,19.40
2019-04-28T19:54:13.695Z,22.20
2019-04-28T19:56:46.777Z,17.60
2019-04-28T19:59:20.208Z,18.70
2019-04-28T20:01:49.090Z,18.43
2019-04-28T20:04:17.587Z,17.97
2019-04-28T20:06:46.275Z,15.47
2019-04-28T20:09:15.035Z,18.10
2019-04-28T20:11:43.677Z,18.57
2019-04-28T20:14:12.476Z,19.80
2019-04-28T20:16:44.381Z,18.67
2019-04-28T20:19:13.045Z,15.03
2019-04-28T20:22:21.788Z,15.93
2019-04-28T20:24:50.755Z,16.27
2019-04-28T20:27:21.419Z,22.03
2019-04-28T20:30:09.459Z,26.60
2019-04-28T20:48:53.811Z,19.60
2019-04-28T20:51:25.671Z,22.47
2019-04-28T20:53:54.512Z,21.47
2019-04-28T20:56:27.649Z,22.13
2019-04-28T20:58:56.454Z,17.60
2019-04-28T21:01:26.833Z,18.70
2019-04-28T21:03:59.462Z,22.17
2019-04-28T21:06:32.295Z,19.67
2019-04-28T21:09:06.071Z,20.03
2019-04-28T21:11:42.551Z,20.70
2019-04-28T21:14:14.837Z,14.50
2019-04-28T21:22:59.575Z,17.07
2019-04-28T21:25:39.063Z,15.37
2019-04-28T21:28:29.783Z,14.53
2019-04-28T21:31:19.621Z,17.87
2019-04-28T21:33:56.979Z,22.20
2019-04-28T21:39:14.272Z,18.97
2019-04-28T21:41:43.502Z,22.40
2019-04-28T21:54:57.786Z,18.13
2019-04-28T22:01:54.132Z,16.90
2019-04-28T22:03:44.040Z,18.40
2019-04-28T22:06:45.312Z,18.20
2019-04-28T22:09:07.654Z,14.90
2019-04-28T22:11:36.818Z,17.93
2019-04-28T22:14:19.466Z,20.27
2019-04-28T22:16:39.834Z,14.70
2019-04-28T22:19:22.534Z,15.40
2019-04-28T22:25:15.622Z,17.57
2019-04-28T22:30:49.593Z,17.40
2019-04-28T22:33:18.473Z,15.10
2019-04-28T22:35:49.270Z,17.20
2019-04-28T22:38:18.471Z,15.60
2019-04-28T22:40:47.300Z,14.40
2019-04-28T22:43:29.598Z,14.87
2019-04-28T22:46:06.546Z,15.07
2019-04-28T22:51:53.960Z,19.17
2019-04-28T22:54:31.016Z,16.67
2019-04-28T22:57:41.970Z,13.20
2019-04-28T23:37:07.194Z,20.17
2019-04-28T23:39:53.422Z,19.80
2019-04-28T23:55:00.630Z,20.43
